createdAt,value
2022-08-03T00:04:21.706Z,4.20
2022-08-03T00:09:36.043Z,4.40
2022-08-03T00:14:37.762Z,3.80
2022-08-03T00:19:39.437Z,4.07
2022-08-03T00:24:41.116Z,4.57
2022-08-03T00:30:00.094Z,4.00
2022-08-03T00:35:08.063Z,4.40
2022-08-03T00:40:15.451Z,4.07
2022-08-03T00:45:21.399Z,4.40
2022-08-03T00:50:23.718Z,4.60
2022-08-03T00:55:25.478Z,4.53
2022-08-03T01:00:27.478Z,4.40
2022-08-03T01:05:29.384Z,4.47
2022-08-03T01:10:51.367Z,5.30
2022-08-03T01:16:09.808Z,4.63
2022-08-03T01:21:14.434Z,4.57
2022-08-03T01:26:25.334Z,4.80
2022-08-03T01:31:29.707Z,4.50
2022-08-03T01:36:39.449Z,4.53
2022-08-03T01:41:44.714Z,5.93
2022-08-03T01:46:49.168Z,5.00
2022-08-03T01:51:58.552Z,4.93
2022-08-03T01:57:06.951Z,5.00
2022-08-03T02:02:28.360Z,5.30
2022-08-03T02:07:30.645Z,5.13
2022-08-03T02:12:32.933Z,4.87
2022-08-03T02:17:39.563Z,5.13
2022-08-03T02:22:42.511Z,5.43
2022-08-03T02:27:52.117Z,4.93
2022-08-03T02:32:55.488Z,5.43
2022-08-03T02:37:59.779Z,5.07
2022-08-03T02:43:03.888Z,5.47
2022-08-03T02:48:05.680Z,5.10
2022-08-03T02:53:07.351Z,5.13
2022-08-03T02:58:08.998Z,4.90
2022-08-03T03:03:10.686Z,5.43
2022-08-03T03:08:18.777Z,5.20
2022-08-03T03:13:23.086Z,5.30
2022-08-03T03:18:24.949Z,5.30
2022-08-03T03:23:27.114Z,5.07
2022-08-03T03:28:28.954Z,5.07
2022-08-03T03:33:30.644Z,5.23
2022-08-03T03:38:32.654Z,5.40
2022-08-03T03:43:34.461Z,5.70
2022-08-03T03:48:36.201Z,5.57
2022-08-03T03:53:37.891Z,5.47
2022-08-03T03:58:39.685Z,5.57
2022-08-03T04:03:41.372Z,5.83
2022-08-03T04:09:01.634Z,5.43
2022-08-03T04:14:12.757Z,5.80
2022-08-03T04:19:22.593Z,5.30
2022-08-03T04:24:27.064Z,4.93
2022-08-03T04:29:29.205Z,5.27
2022-08-03T04:34:30.903Z,5.27
2022-08-03T04:39:32.595Z,5.80
2022-08-03T04:44:42.114Z,5.43
2022-08-03T04:49:43.897Z,5.27
2022-08-03T04:54:50.482Z,5.40
2022-08-03T05:00:01.362Z,5.50
2022-08-03T05:05:04.172Z,5.67
2022-08-03T05:10:14.916Z,5.20
2022-08-03T05:15:17.955Z,4.77
2022-08-03T05:20:19.619Z,4.90
2022-08-03T05:25:23.337Z,5.07
2022-08-03T05:30:33.611Z,4.70
2022-08-03T05:36:01.124Z,4.90
2022-08-03T05:41:22.723Z,4.40
2022-08-03T05:46:20.924Z,4.10
2022-08-03T05:51:22.648Z,4.20
2022-08-03T05:56:27.177Z,4.20
2022-08-03T06:01:29.218Z,4.00
2022-08-03T06:06:32.384Z,4.60
2022-08-03T06:11:34.349Z,3.97
2022-08-03T06:16:36.312Z,4.33
2022-08-03T06:21:38.015Z,4.70
2022-08-03T06:26:41.603Z,4.50
2022-08-03T06:31:43.318Z,4.27
2022-08-03T06:36:48.397Z,4.07
2022-08-03T06:41:50.141Z,4.23
2022-08-03T06:46:52.986Z,4.20
2022-08-03T06:52:03.131Z,4.70
2022-08-03T06:57:06.471Z,3.73
2022-08-03T07:02:09.659Z,3.77
2022-08-03T07:07:11.379Z,4.10
2022-08-03T07:12:13.231Z,3.80
2022-08-03T07:17:15.041Z,3.37
2022-08-03T07:22:16.925Z,3.67
2022-08-03T07:27:18.736Z,3.77
2022-08-03T07:32:20.408Z,4.07
2022-08-03T07:37:22.104Z,4.10
2022-08-03T07:42:23.947Z,3.30
2022-08-03T07:47:34.774Z,2.97
2022-08-03T07:52:49.568Z,3.20
2022-08-03T07:58:04.226Z,3.67
2022-08-03T08:03:05.930Z,3.60
2022-08-03T08:08:07.623Z,3.03
2022-08-03T08:13:09.347Z,3.30
2022-08-03T08:18:11.014Z,3.70
2022-08-03T08:23:31.927Z,3.30
2022-08-03T08:28:34.448Z,3.50
2022-08-03T08:38:57.884Z,2.83
2022-08-03T08:44:00.193Z,2.90
2022-08-03T08:49:04.695Z,2.67
2022-08-03T08:54:07.405Z,2.60
2022-08-03T08:59:09.097Z,2.70
2022-08-03T09:04:10.775Z,2.73
2022-08-03T09:10:00.094Z,2.33
2022-08-03T09:14:39.393Z,2.33
2022-08-03T09:20:03.254Z,2.43
2022-08-03T09:25:23.882Z,3.10
2022-08-03T09:30:34.110Z,2.50
2022-08-03T09:35:59.023Z,2.70
2022-08-03T09:41:01.111Z,2.60
2022-08-03T09:46:04.169Z,3.10
2022-08-03T09:51:13.044Z,2.90
2022-08-03T09:56:36.094Z,2.27
2022-08-03T10:01:41.601Z,2.73
2022-08-03T10:06:44.521Z,3.00
2022-08-03T10:11:47.479Z,2.60
2022-08-03T10:16:49.353Z,2.60
2022-08-03T10:21:55.523Z,2.37
2022-08-03T10:27:04.306Z,2.60
2022-08-03T10:32:27.204Z,2.70
2022-08-03T10:37:30.404Z,2.40
2022-08-03T10:42:32.130Z,2.27
2022-08-03T10:47:34.383Z,2.30
2022-08-03T10:52:41.282Z,2.70
2022-08-03T10:57:48.841Z,2.33
2022-08-03T11:03:12.546Z,2.43
2022-08-03T11:08:30.890Z,2.20
2022-08-03T11:13:33.881Z,2.30
2022-08-03T11:18:35.925Z,2.50
2022-08-03T11:24:04.598Z,2.20
2022-08-03T11:29:29.231Z,2.20
2022-08-03T11:34:31.190Z,2.22
2022-08-03T11:39:39.643Z,2.60
2022-08-03T11:44:41.327Z,2.30
2022-08-03T11:49:50.212Z,2.40
2022-08-03T11:54:57.181Z,2.60
2022-08-03T11:59:59.235Z,2.20
2022-08-03T12:05:01.443Z,2.45
2022-08-03T12:10:07.427Z,2.25
2022-08-03T12:15:09.555Z,2.25
2022-08-03T12:20:14.373Z,2.03
2022-08-03T12:25:25.805Z,2.15
2022-08-03T12:30:41.633Z,2.03
2022-08-03T12:35:52.130Z,2.47
2022-08-03T12:41:02.407Z,2.05
2022-08-03T12:46:11.154Z,2.00
2022-08-03T12:51:13.112Z,1.95
2022-08-03T12:56:14.842Z,2.10
2022-08-03T13:01:16.738Z,2.00
2022-08-03T13:06:25.031Z,1.92
2022-08-03T13:11:57.631Z,2.25
2022-08-03T13:16:49.193Z,1.80
2022-08-03T13:22:02.122Z,3.67
2022-08-03T13:28:02.472Z,2.38
2022-08-03T13:32:29.112Z,2.28
2022-08-03T13:37:32.261Z,1.77
2022-08-03T13:42:34.817Z,1.73
2022-08-03T13:47:37.944Z,1.90
2022-08-03T13:52:39.868Z,1.90
2022-08-03T13:58:05.235Z,1.60
2022-08-03T14:03:10.788Z,1.77
2022-08-03T14:08:15.248Z,2.15
2022-08-03T14:13:17.939Z,2.00
2022-08-03T14:18:28.640Z,1.77
2022-08-03T14:23:35.947Z,1.90
2022-08-03T14:28:37.700Z,2.10
2022-08-03T14:33:39.662Z,1.90
2022-08-03T14:38:41.341Z,2.00
2022-08-03T14:44:01.326Z,1.98
2022-08-03T14:50:30.260Z,1.80
2022-08-03T14:54:26.898Z,2.08
2022-08-03T14:59:28.585Z,2.00
2022-08-03T15:04:50.264Z,1.90
2022-08-03T15:09:51.980Z,2.00
2022-08-03T15:14:53.673Z,2.00
2022-08-03T15:20:01.028Z,1.90
2022-08-03T15:26:30.330Z,3.53
2022-08-03T15:30:28.037Z,2.10
2022-08-03T15:35:29.703Z,1.73
2022-08-03T15:40:31.473Z,1.77
2022-08-03T15:45:35.339Z,2.08
2022-08-03T15:50:38.135Z,1.80
2022-08-03T15:55:40.400Z,2.10
2022-08-03T16:00:42.195Z,1.90
2022-08-03T16:05:43.995Z,2.03
2022-08-03T16:10:46.783Z,2.20
2022-08-03T16:15:50.189Z,2.10
2022-08-03T16:20:51.903Z,1.90
2022-08-03T16:25:53.743Z,2.10
2022-08-03T16:30:55.438Z,1.70
2022-08-03T16:35:57.157Z,2.10
2022-08-03T16:40:58.906Z,2.35
2022-08-03T16:46:00.582Z,2.00
2022-08-03T16:51:02.917Z,2.10
2022-08-03T16:56:09.852Z,2.40
2022-08-03T17:01:24.128Z,2.50
2022-08-03T17:06:26.673Z,3.38
2022-08-03T17:11:44.031Z,2.45
2022-08-03T17:16:52.922Z,2.40
2022-08-03T17:22:17.615Z,2.42
2022-08-03T17:28:49.565Z,2.10
2022-08-03T17:32:56.988Z,2.35
2022-08-03T17:38:03.341Z,2.30
2022-08-03T17:44:14.248Z,2.70
2022-08-03T17:48:31.845Z,2.47
2022-08-03T17:53:39.193Z,2.67
2022-08-03T17:58:43.729Z,3.10
2022-08-03T18:03:59.092Z,3.30
2022-08-03T18:09:05.231Z,2.83
2022-08-03T18:14:26.478Z,4.30
2022-08-03T18:20:03.605Z,3.50
2022-08-03T18:24:50.891Z,4.20
2022-08-03T18:29:53.445Z,4.17
2022-08-03T18:34:58.647Z,3.80
2022-08-03T18:40:00.766Z,3.90
2022-08-03T18:45:15.056Z,3.53
2022-08-03T18:50:37.122Z,3.93
2022-08-03T18:56:11.002Z,6.00
2022-08-03T19:01:59.035Z,7.10
2022-08-03T19:06:56.603Z,5.03
2022-08-03T19:12:12.764Z,4.47
2022-08-03T19:17:21.781Z,4.60
2022-08-03T19:22:27.119Z,4.17
2022-08-03T19:27:29.888Z,4.37
2022-08-03T19:32:32.494Z,4.60
2022-08-03T19:37:39.810Z,4.67
2022-08-03T19:42:44.668Z,3.90
2022-08-03T19:47:51.387Z,4.37
2022-08-03T19:52:53.214Z,4.80
2022-08-03T19:57:54.913Z,5.07
2022-08-03T20:02:59.041Z,5.20
2022-08-03T20:08:02.652Z,5.20
2022-08-03T20:13:04.329Z,6.00
2022-08-03T20:18:06.095Z,4.73
2022-08-03T20:23:18.992Z,4.50
2022-08-03T20:28:26.696Z,4.40
2022-08-03T20:34:20.041Z,4.90
2022-08-03T20:39:22.078Z,4.60
2022-08-03T20:44:25.692Z,4.80
2022-08-03T20:49:27.728Z,5.40
2022-08-03T20:54:30.942Z,5.60
2022-08-03T20:59:46.867Z,5.70
2022-08-03T21:04:49.540Z,5.20
2022-08-03T21:09:52.837Z,5.33
2022-08-03T21:15:02.758Z,5.23
2022-08-03T21:20:08.783Z,5.20
2022-08-03T21:25:10.665Z,5.50
2022-08-03T21:30:12.638Z,7.57
2022-08-03T21:35:14.496Z,5.77
2022-08-03T21:40:16.527Z,5.70
2022-08-03T21:45:18.387Z,5.70
2022-08-03T21:50:20.148Z,9.13
2022-08-03T21:55:21.923Z,7.57
2022-08-03T22:00:23.802Z,6.27
2022-08-03T22:05:29.025Z,6.20
2022-08-03T22:10:44.678Z,5.83
2022-08-03T22:15:47.670Z,6.30
2022-08-03T22:20:51.120Z,5.80
2022-08-03T22:25:53.106Z,5.40
2022-08-03T22:30:54.813Z,6.00
2022-08-03T22:35:57.272Z,6.13
2022-08-03T22:40:58.968Z,5.87
2022-08-03T22:46:09.554Z,5.93
2022-08-03T22:51:15.096Z,6.00
2022-08-03T22:56:16.800Z,6.60
2022-08-03T23:01:20.143Z,5.87
2022-08-03T23:06:21.822Z,6.20
2022-08-03T23:11:23.533Z,6.13
2022-08-03T23:16:28.601Z,6.60
2022-08-03T23:21:53.091Z,6.63
2022-08-03T23:26:53.125Z,6.40
2022-08-03T23:31:55.025Z,6.00
2022-08-03T23:36:56.716Z,6.17
2022-08-03T23:41:58.430Z,6.43
2022-08-03T23:47:02.118Z,6.10
2022-08-03T23:52:34.252Z,6.00
2022-08-03T23:57:51.303Z,6.50
